sensor_id;sensor_type;location;lat;lon;timestamp;temperature;humidity
14210;DHT22;7188;56.070;12.698;2024-03-23T00:51:56;5.10;99.90
14210;DHT22;7188;56.070;12.698;2024-03-23T00:54:22;5.10;99.90
14210;DHT22;7188;56.070;12.698;2024-03-23T00:56:47;5.10;99.90
14210;DHT22;7188;56.070;12.698;2024-03-23T00:59:13;5.10;99.90
14210;DHT22;7188;56.070;12.698;2024-03-23T01:01:39;5.10;99.90
14210;DHT22;7188;56.070;12.698;2024-03-23T01:04:04;5.10;99.90
14210;DHT22;7188;56.070;12.698;2024-03-23T01:06:30;5.00;99.90
14210;DHT22;7188;56.070;12.698;2024-03-23T01:08:56;5.00;99.90
14210;DHT22;7188;56.070;12.698;2024-03-23T01:11:21;5.00;99.90
14210;DHT22;7188;56.070;12.698;2024-03-23T01:13:47;4.90;99.90
14210;DHT22;7188;56.070;12.698;2024-03-23T01:16:12;4.90;99.90
14210;DHT22;7188;56.070;12.698;2024-03-23T01:18:38;4.90;99.90
14210;DHT22;7188;56.070;12.698;2024-03-23T01:21:16;4.90;99.90
14210;DHT22;7188;56.070;12.698;2024-03-23T01:23:42;4.90;99.90
14210;DHT22;7188;56.070;12.698;2024-03-23T01:26:08;4.90;99.90
14210;DHT22;7188;56.070;12.698;2024-03-23T01:28:33;4.80;99.90
14210;DHT22;7188;56.070;12.698;2024-03-23T01:30:59;4.80;99.90
14210;DHT22;7188;56.070;12.698;2024-03-23T01:33:24;4.80;99.90
14210;DHT22;7188;56.070;12.698;2024-03-23T01:35:50;4.80;99.90
14210;DHT22;7188;56.070;12.698;2024-03-23T01:38:16;4.80;99.90
14210;DHT22;7188;56.070;12.698;2024-03-23T01:40:41;4.80;99.90
14210;DHT22;7188;56.070;12.698;2024-03-23T01:43:07;4.80;99.90
14210;DHT22;7188;56.070;12.698;2024-03-23T01:45:34;4.70;99.90
14210;DHT22;7188;56.070;12.698;2024-03-23T01:48:00;4.70;99.90
14210;DHT22;7188;56.070;12.698;2024-03-23T01:50:26;4.70;99.90
14210;DHT22;7188;56.070;12.698;2024-03-23T01:52:53;4.70;99.90
14210;DHT22;7188;56.070;12.698;2024-03-23T01:55:19;4.70;99.90
14210;DHT22;7188;56.070;12.698;2024-03-23T01:57:45;4.70;99.90
14210;DHT22;7188;56.070;12.698;2024-03-23T02:00:11;4.70;99.90
14210;DHT22;7188;56.070;12.698;2024-03-23T02:02:47;4.70;99.90
14210;DHT22;7188;56.070;12.698;2024-03-23T02:05:13;4.70;99.90
14210;DHT22;7188;56.070;12.698;2024-03-23T02:07:42;4.70;99.90
14210;DHT22;7188;56.070;12.698;2024-03-23T02:10:10;4.60;99.90
14210;DHT22;7188;56.070;12.698;2024-03-23T02:12:39;4.60;99.90
14210;DHT22;7188;56.070;12.698;2024-03-23T02:15:04;4.50;99.90
14210;DHT22;7188;56.070;12.698;2024-03-23T02:17:32;4.50;99.90
14210;DHT22;7188;56.070;12.698;2024-03-23T02:19:58;4.50;99.90
14210;DHT22;7188;56.070;12.698;2024-03-23T02:22:24;4.40;99.90
14210;DHT22;7188;56.070;12.698;2024-03-23T02:24:49;4.40;99.90
14210;DHT22;7188;56.070;12.698;2024-03-23T02:27:15;4.40;99.90
14210;DHT22;7188;56.070;12.698;2024-03-23T02:30:02;4.30;99.90
14210;DHT22;7188;56.070;12.698;2024-03-23T02:32:28;4.30;99.90
14210;DHT22;7188;56.070;12.698;2024-03-23T02:34:54;4.40;99.90
14210;DHT22;7188;56.070;12.698;2024-03-23T02:37:19;4.30;99.90
14210;DHT22;7188;56.070;12.698;2024-03-23T02:39:45;4.30;99.90
14210;DHT22;7188;56.070;12.698;2024-03-23T02:42:10;4.30;99.90
14210;DHT22;7188;56.070;12.698;2024-03-23T02:44:36;4.30;99.90
14210;DHT22;7188;56.070;12.698;2024-03-23T02:47:02;4.20;99.90
14210;DHT22;7188;56.070;12.698;2024-03-23T02:49:27;4.20;99.90
14210;DHT22;7188;56.070;12.698;2024-03-23T02:51:53;4.20;99.90
14210;DHT22;7188;56.070;12.698;2024-03-23T02:54:19;4.20;99.90
14210;DHT22;7188;56.070;12.698;2024-03-23T02:56:45;4.20;99.90
14210;DHT22;7188;56.070;12.698;2024-03-23T02:59:10;4.20;99.90
14210;DHT22;7188;56.070;12.698;2024-03-23T03:01:36;4.20;99.90
14210;DHT22;7188;56.070;12.698;2024-03-23T03:04:01;4.20;99.90
14210;DHT22;7188;56.070;12.698;2024-03-23T03:06:30;4.10;99.90
14210;DHT22;7188;56.070;12.698;2024-03-23T03:08:56;4.20;99.90
14210;DHT22;7188;56.070;12.698;2024-03-23T03:11:21;4.10;99.90
14210;DHT22;7188;56.070;12.698;2024-03-23T03:13:47;4.20;99.90
14210;DHT22;7188;56.070;12.698;2024-03-23T03:16:13;4.20;99.90
14210;DHT22;7188;56.070;12.698;2024-03-23T03:18:39;4.10;99.90
14210;DHT22;7188;56.070;12.698;2024-03-23T03:21:06;4.20;99.90
14210;DHT22;7188;56.070;12.698;2024-03-23T03:23:37;4.10;99.90
14210;DHT22;7188;56.070;12.698;2024-03-23T03:26:03;4.00;99.90
14210;DHT22;7188;56.070;12.698;2024-03-23T03:28:28;3.90;99.90
14210;DHT22;7188;56.070;12.698;2024-03-23T03:30:56;3.90;99.90
14210;DHT22;7188;56.070;12.698;2024-03-23T03:33:28;3.90;99.90
14210;DHT22;7188;56.070;12.698;2024-03-23T03:35:55;3.90;99.90
14210;DHT22;7188;56.070;12.698;2024-03-23T03:38:20;3.80;99.90
14210;DHT22;7188;56.070;12.698;2024-03-23T03:40:46;3.90;99.90
14210;DHT22;7188;56.070;12.698;2024-03-23T03:43:12;3.90;99.90
14210;DHT22;7188;56.070;12.698;2024-03-23T03:45:38;3.80;99.90
14210;DHT22;7188;56.070;12.698;2024-03-23T03:48:03;3.90;99.90
14210;DHT22;7188;56.070;12.698;2024-03-23T03:50:29;3.90;99.90
14210;DHT22;7188;56.070;12.698;2024-03-23T03:52:56;3.80;99.90
14210;DHT22;7188;56.070;12.698;2024-03-23T03:55:21;3.80;99.90
14210;DHT22;7188;56.070;12.698;2024-03-23T03:57:47;3.80;99.90
14210;DHT22;7188;56.070;12.698;2024-03-23T04:00:13;3.80;99.90
14210;DHT22;7188;56.070;12.698;2024-03-23T04:02:39;4.00;99.90
14210;DHT22;7188;56.070;12.698;2024-03-23T04:05:05;3.90;99.90
14210;DHT22;7188;56.070;12.698;2024-03-23T04:07:31;3.90;99.90
14210;DHT22;7188;56.070;12.698;2024-03-23T04:09:56;3.80;99.90
14210;DHT22;7188;56.070;12.698;2024-03-23T04:12:23;3.90;99.90
14210;DHT22;7188;56.070;12.698;2024-03-23T04:14:49;3.80;99.90
14210;DHT22;7188;56.070;12.698;2024-03-23T04:17:15;3.70;99.90
14210;DHT22;7188;56.070;12.698;2024-03-23T04:19:40;3.60;99.90
14210;DHT22;7188;56.070;12.698;2024-03-23T04:22:06;3.60;99.90
14210;DHT22;7188;56.070;12.698;2024-03-23T04:24:32;3.70;99.90
14210;DHT22;7188;56.070;12.698;2024-03-23T04:26:57;3.60;99.90
14210;DHT22;7188;56.070;12.698;2024-03-23T04:29:23;3.70;99.90
14210;DHT22;7188;56.070;12.698;2024-03-23T04:31:49;3.70;99.90
14210;DHT22;7188;56.070;12.698;2024-03-23T04:34:14;3.80;99.90
14210;DHT22;7188;56.070;12.698;2024-03-23T04:36:40;3.80;99.90
14210;DHT22;7188;56.070;12.698;2024-03-23T04:39:05;3.60;99.90
14210;DHT22;7188;56.070;12.698;2024-03-23T04:41:34;3.50;99.90
14210;DHT22;7188;56.070;12.698;2024-03-23T04:44:00;3.40;99.90
14210;DHT22;7188;56.070;12.698;2024-03-23T04:46:26;3.50;99.90
14210;DHT22;7188;56.070;12.698;2024-03-23T04:48:52;3.50;99.90
14210;DHT22;7188;56.070;12.698;2024-03-23T04:51:38;3.50;99.90
14210;DHT22;7188;56.070;12.698;2024-03-23T04:54:04;3.50;99.90
14210;DHT22;7188;56.070;12.698;2024-03-23T04:56:31;3.50;99.90
14210;DHT22;7188;56.070;12.698;2024-03-23T04:58:57;3.50;99.90
14210;DHT22;7188;56.070;12.698;2024-03-23T05:01:27;3.50;99.90
14210;DHT22;7188;56.070;12.698;2024-03-23T05:03:52;3.50;99.90
14210;DHT22;7188;56.070;12.698;2024-03-23T05:06:18;3.60;99.90
14210;DHT22;7188;56.070;12.698;2024-03-23T05:08:44;3.60;99.90
14210;DHT22;7188;56.070;12.698;2024-03-23T05:11:11;3.50;99.90
14210;DHT22;7188;56.070;12.698;2024-03-23T05:13:37;3.40;99.90
14210;DHT22;7188;56.070;12.698;2024-03-23T05:16:02;3.40;99.90
14210;DHT22;7188;56.070;12.698;2024-03-23T05:18:28;3.40;99.90
14210;DHT22;7188;56.070;12.698;2024-03-23T05:20:58;3.50;99.90
14210;DHT22;7188;56.070;12.698;2024-03-23T05:23:24;3.50;99.90
14210;DHT22;7188;56.070;12.698;2024-03-23T05:25:50;3.50;99.90
14210;DHT22;7188;56.070;12.698;2024-03-23T05:28:17;3.50;99.90
14210;DHT22;7188;56.070;12.698;2024-03-23T05:30:43;3.40;99.90
14210;DHT22;7188;56.070;12.698;2024-03-23T05:33:09;3.40;99.90
14210;DHT22;7188;56.070;12.698;2024-03-23T05:35:34;3.30;99.90
14210;DHT22;7188;56.070;12.698;2024-03-23T05:38:00;3.30;99.90
14210;DHT22;7188;56.070;12.698;2024-03-23T05:40:26;3.20;99.90
14210;DHT22;7188;56.070;12.698;2024-03-23T05:42:52;3.20;99.90
14210;DHT22;7188;56.070;12.698;2024-03-23T05:45:23;3.10;99.90
14210;DHT22;7188;56.070;12.698;2024-03-23T05:47:49;3.20;99.90
14210;DHT22;7188;56.070;12.698;2024-03-23T05:50:16;3.20;99.90
14210;DHT22;7188;56.070;12.698;2024-03-23T05:52:43;3.20;99.90
14210;DHT22;7188;56.070;12.698;2024-03-23T05:55:09;3.20;99.90
14210;DHT22;7188;56.070;12.698;2024-03-23T05:57:34;3.20;99.90
14210;DHT22;7188;56.070;12.698;2024-03-23T06:00:00;3.20;99.90
14210;DHT22;7188;56.070;12.698;2024-03-23T06:02:25;3.30;99.90
14210;DHT22;7188;56.070;12.698;2024-03-23T06:04:51;3.40;99.90
14210;DHT22;7188;56.070;12.698;2024-03-23T06:07:17;3.40;99.90
14210;DHT22;7188;56.070;12.698;2024-03-23T06:09:42;3.50;99.90
14210;DHT22;7188;56.070;12.698;2024-03-23T06:12:08;3.50;99.90
14210;DHT22;7188;56.070;12.698;2024-03-23T06:14:34;3.50;99.90
14210;DHT22;7188;56.070;12.698;2024-03-23T06:17:00;3.60;99.90
14210;DHT22;7188;56.070;12.698;2024-03-23T06:19:27;3.70;99.90
14210;DHT22;7188;56.070;12.698;2024-03-23T06:21:53;3.70;99.90
14210;DHT22;7188;56.070;12.698;2024-03-23T06:24:23;3.70;99.90
14210;DHT22;7188;56.070;12.698;2024-03-23T06:26:49;3.80;99.90
14210;DHT22;7188;56.070;12.698;2024-03-23T06:29:15;3.90;99.90
14210;DHT22;7188;56.070;12.698;2024-03-23T06:31:41;3.90;99.90
14210;DHT22;7188;56.070;12.698;2024-03-23T06:34:06;4.00;99.90
14210;DHT22;7188;56.070;12.698;2024-03-23T06:36:32;4.10;99.90
14210;DHT22;7188;56.070;12.698;2024-03-23T06:39:04;4.10;99.90
14210;DHT22;7188;56.070;12.698;2024-03-23T06:41:30;4.20;99.90
14210;DHT22;7188;56.070;12.698;2024-03-23T06:43:56;4.30;99.90
14210;DHT22;7188;56.070;12.698;2024-03-23T06:46:21;4.40;99.90
14210;DHT22;7188;56.070;12.698;2024-03-23T06:48:47;4.50;99.90
14210;DHT22;7188;56.070;12.698;2024-03-23T06:51:12;4.60;99.90
14210;DHT22;7188;56.070;12.698;2024-03-23T06:53:38;4.70;99.90
14210;DHT22;7188;56.070;12.698;2024-03-23T06:56:04;4.70;99.90
14210;DHT22;7188;56.070;12.698;2024-03-23T06:58:29;4.70;99.90
14210;DHT22;7188;56.070;12.698;2024-03-23T07:00:55;4.70;99.90
14210;DHT22;7188;56.070;12.698;2024-03-23T07:03:21;4.80;99.90
14210;DHT22;7188;56.070;12.698;2024-03-23T07:05:47;4.70;99.90
14210;DHT22;7188;56.070;12.698;2024-03-23T07:08:12;4.70;99.90
14210;DHT22;7188;56.070;12.698;2024-03-23T07:10:41;4.80;99.90
14210;DHT22;7188;56.070;12.698;2024-03-23T07:13:07;4.80;99.90
14210;DHT22;7188;56.070;12.698;2024-03-23T07:15:33;5.00;99.90
14210;DHT22;7188;56.070;12.698;2024-03-23T07:17:58;5.10;99.90
14210;DHT22;7188;56.070;12.698;2024-03-23T07:20:24;5.20;99.90
14210;DHT22;7188;56.070;12.698;2024-03-23T07:22:50;5.40;99.90
14210;DHT22;7188;56.070;12.698;2024-03-23T07:25:15;5.50;99.90
14210;DHT22;7188;56.070;12.698;2024-03-23T07:27:42;5.50;99.90
14210;DHT22;7188;56.070;12.698;2024-03-23T07:30:08;5.60;99.90
14210;DHT22;7188;56.070;12.698;2024-03-23T07:32:34;5.80;99.90
14210;DHT22;7188;56.070;12.698;2024-03-23T07:35:01;5.90;99.90
14210;DHT22;7188;56.070;12.698;2024-03-23T07:37:26;5.90;99.90
14210;DHT22;7188;56.070;12.698;2024-03-23T07:39:52;6.00;99.90
14210;DHT22;7188;56.070;12.698;2024-03-23T07:42:18;6.10;99.90
14210;DHT22;7188;56.070;12.698;2024-03-23T07:44:43;6.10;99.90
14210;DHT22;7188;56.070;12.698;2024-03-23T07:47:09;6.20;99.90
14210;DHT22;7188;56.070;12.698;2024-03-23T07:49:34;6.30;99.90
14210;DHT22;7188;56.070;12.698;2024-03-23T07:52:00;6.40;99.90
14210;DHT22;7188;56.070;12.698;2024-03-23T07:54:26;6.40;99.90
14210;DHT22;7188;56.070;12.698;2024-03-23T07:56:51;6.50;99.90
14210;DHT22;7188;56.070;12.698;2024-03-23T07:59:17;6.50;99.90
14210;DHT22;7188;56.070;12.698;2024-03-23T08:01:44;6.40;99.90
14210;DHT22;7188;56.070;12.698;2024-03-23T08:04:11;6.50;99.90
14210;DHT22;7188;56.070;12.698;2024-03-23T08:06:38;6.50;99.90
14210;DHT22;7188;56.070;12.698;2024-03-23T08:09:04;6.50;99.90
14210;DHT22;7188;56.070;12.698;2024-03-23T08:11:30;6.60;99.90
14210;DHT22;7188;56.070;12.698;2024-03-23T08:13:56;6.60;99.90
14210;DHT22;7188;56.070;12.698;2024-03-23T08:16:23;6.70;99.90
14210;DHT22;7188;56.070;12.698;2024-03-23T08:18:50;6.70;99.90
14210;DHT22;7188;56.070;12.698;2024-03-23T08:21:16;6.70;99.90
14210;DHT22;7188;56.070;12.698;2024-03-23T08:23:42;6.80;99.90
14210;DHT22;7188;56.070;12.698;2024-03-23T08:26:09;6.80;99.90
14210;DHT22;7188;56.070;12.698;2024-03-23T08:28:36;6.90;99.90
14210;DHT22;7188;56.070;12.698;2024-03-23T08:31:12;7.10;99.90
14210;DHT22;7188;56.070;12.698;2024-03-23T08:33:38;7.30;99.90
14210;DHT22;7188;56.070;12.698;2024-03-23T08:36:08;7.40;99.90
14210;DHT22;7188;56.070;12.698;2024-03-23T08:38:34;7.60;99.90
14210;DHT22;7188;56.070;12.698;2024-03-23T08:41:02;7.90;99.90
14210;DHT22;7188;56.070;12.698;2024-03-23T08:43:28;8.00;99.90
14210;DHT22;7188;56.070;12.698;2024-03-23T08:48:32;8.20;99.90
14210;DHT22;7188;56.070;12.698;2024-03-23T08:51:06;8.20;99.90
14210;DHT22;7188;56.070;12.698;2024-03-23T08:53:32;8.40;99.90
14210;DHT22;7188;56.070;12.698;2024-03-23T08:55:59;8.70;99.90
14210;DHT22;7188;56.070;12.698;2024-03-23T08:58:26;8.80;99.90
14210;DHT22;7188;56.070;12.698;2024-03-23T09:00:53;8.80;99.90
14210;DHT22;7188;56.070;12.698;2024-03-23T09:03:21;8.80;99.90
14210;DHT22;7188;56.070;12.698;2024-03-23T09:05:46;8.70;99.90
14210;DHT22;7188;56.070;12.698;2024-03-23T09:08:12;8.70;99.90
14210;DHT22;7188;56.070;12.698;2024-03-23T09:10:41;8.60;99.90
14210;DHT22;7188;56.070;12.698;2024-03-23T09:13:07;8.50;99.90
14210;DHT22;7188;56.070;12.698;2024-03-23T09:15:37;8.50;99.90
14210;DHT22;7188;56.070;12.698;2024-03-23T09:18:03;8.60;99.90
14210;DHT22;7188;56.070;12.698;2024-03-23T09:20:33;8.90;99.90
14210;DHT22;7188;56.070;12.698;2024-03-23T09:22:58;9.00;99.90
14210;DHT22;7188;56.070;12.698;2024-03-23T09:25:24;9.10;99.90
14210;DHT22;7188;56.070;12.698;2024-03-23T09:27:50;9.20;99.90
14210;DHT22;7188;56.070;12.698;2024-03-23T09:30:16;9.30;99.90
14210;DHT22;7188;56.070;12.698;2024-03-23T09:32:44;9.40;99.90
14210;DHT22;7188;56.070;12.698;2024-03-23T09:35:10;9.60;99.90
14210;DHT22;7188;56.070;12.698;2024-03-23T09:37:35;9.50;99.90
14210;DHT22;7188;56.070;12.698;2024-03-23T09:40:01;9.70;99.90
14210;DHT22;7188;56.070;12.698;2024-03-23T09:42:27;9.80;99.90
14210;DHT22;7188;56.070;12.698;2024-03-23T09:44:54;9.60;99.90
14210;DHT22;7188;56.070;12.698;2024-03-23T09:47:22;9.40;99.90
14210;DHT22;7188;56.070;12.698;2024-03-23T09:49:48;9.50;99.90
14210;DHT22;7188;56.070;12.698;2024-03-23T09:52:14;9.30;99.90
14210;DHT22;7188;56.070;12.698;2024-03-23T09:54:40;9.30;99.90
14210;DHT22;7188;56.070;12.698;2024-03-23T09:57:06;9.20;99.90
14210;DHT22;7188;56.070;12.698;2024-03-23T09:59:33;9.20;99.90
14210;DHT22;7188;56.070;12.698;2024-03-23T10:02:01;9.20;99.90
14210;DHT22;7188;56.070;12.698;2024-03-23T10:04:55;9.20;99.90
14210;DHT22;7188;56.070;12.698;2024-03-23T10:07:22;9.20;99.90
14210;DHT22;7188;56.070;12.698;2024-03-23T10:09:48;9.20;99.90
14210;DHT22;7188;56.070;12.698;2024-03-23T10:12:17;9.20;99.90
14210;DHT22;7188;56.070;12.698;2024-03-23T10:14:43;9.40;99.90
14210;DHT22;7188;56.070;12.698;2024-03-23T10:17:15;9.60;99.90
14210;DHT22;7188;56.070;12.698;2024-03-23T10:19:48;9.80;99.90
14210;DHT22;7188;56.070;12.698;2024-03-23T10:22:23;9.90;99.90
14210;DHT22;7188;56.070;12.698;2024-03-23T10:24:52;10.00;99.90
14210;DHT22;7188;56.070;12.698;2024-03-23T10:27:20;10.00;99.90
14210;DHT22;7188;56.070;12.698;2024-03-23T10:29:46;10.00;99.90
14210;DHT22;7188;56.070;12.698;2024-03-23T10:32:14;9.70;99.90
14210;DHT22;7188;56.070;12.698;2024-03-23T10:34:40;9.60;99.90
14210;DHT22;7188;56.070;12.698;2024-03-23T10:37:06;9.50;99.90
14210;DHT22;7188;56.070;12.698;2024-03-23T10:39:34;9.40;99.90
14210;DHT22;7188;56.070;12.698;2024-03-23T10:42:02;9.40;99.90
14210;DHT22;7188;56.070;12.698;2024-03-23T10:44:29;9.50;99.90
14210;DHT22;7188;56.070;12.698;2024-03-23T10:46:56;9.70;99.90
14210;DHT22;7188;56.070;12.698;2024-03-23T10:49:29;9.80;99.90
14210;DHT22;7188;56.070;12.698;2024-03-23T10:51:57;10.20;99.90
14210;DHT22;7188;56.070;12.698;2024-03-23T10:54:25;10.40;99.90
14210;DHT22;7188;56.070;12.698;2024-03-23T10:59:27;10.00;99.90
14210;DHT22;7188;56.070;12.698;2024-03-23T11:01:58;10.20;99.90
14210;DHT22;7188;56.070;12.698;2024-03-23T11:04:35;10.20;99.90
14210;DHT22;7188;56.070;12.698;2024-03-23T11:07:01;10.20;99.90
14210;DHT22;7188;56.070;12.698;2024-03-23T11:14:48;10.50;99.90
14210;DHT22;7188;56.070;12.698;2024-03-23T11:17:18;10.50;99.90
14210;DHT22;7188;56.070;12.698;2024-03-23T11:19:44;10.50;99.90
14210;DHT22;7188;56.070;12.698;2024-03-23T11:22:10;10.60;99.90
14210;DHT22;7188;56.070;12.698;2024-03-23T11:24:35;10.60;99.90
14210;DHT22;7188;56.070;12.698;2024-03-23T11:27:02;10.70;99.90
14210;DHT22;7188;56.070;12.698;2024-03-23T11:29:40;10.70;99.90
14210;DHT22;7188;56.070;12.698;2024-03-23T11:32:10;10.70;99.90
14210;DHT22;7188;56.070;12.698;2024-03-23T11:34:35;10.80;99.90
14210;DHT22;7188;56.070;12.698;2024-03-23T11:37:05;10.70;99.90
14210;DHT22;7188;56.070;12.698;2024-03-23T11:39:31;10.50;99.90
14210;DHT22;7188;56.070;12.698;2024-03-23T11:41:57;10.20;99.90
14210;DHT22;7188;56.070;12.698;2024-03-23T11:44:25;10.10;99.90
14210;DHT22;7188;56.070;12.698;2024-03-23T11:46:51;9.90;99.90
14210;DHT22;7188;56.070;12.698;2024-03-23T11:49:24;10.00;99.90
14210;DHT22;7188;56.070;12.698;2024-03-23T11:51:51;10.00;99.90
14210;DHT22;7188;56.070;12.698;2024-03-23T11:54:27;10.10;99.90
14210;DHT22;7188;56.070;12.698;2024-03-23T11:57:05;10.00;99.90
14210;DHT22;7188;56.070;12.698;2024-03-23T11:59:37;9.80;99.90
14210;DHT22;7188;56.070;12.698;2024-03-23T12:02:10;9.90;99.90
14210;DHT22;7188;56.070;12.698;2024-03-23T12:04:37;10.10;99.90
14210;DHT22;7188;56.070;12.698;2024-03-23T12:07:17;10.30;99.90
14210;DHT22;7188;56.070;12.698;2024-03-23T12:09:47;10.40;99.90
14210;DHT22;7188;56.070;12.698;2024-03-23T12:12:17;10.60;99.90
14210;DHT22;7188;56.070;12.698;2024-03-23T12:15:03;10.80;99.90
14210;DHT22;7188;56.070;12.698;2024-03-23T12:17:29;10.90;99.90
14210;DHT22;7188;56.070;12.698;2024-03-23T12:19:54;11.00;99.90
14210;DHT22;7188;56.070;12.698;2024-03-23T12:22:24;10.90;99.90
14210;DHT22;7188;56.070;12.698;2024-03-23T12:24:50;10.90;99.90
14210;DHT22;7188;56.070;12.698;2024-03-23T12:27:15;10.90;99.90
14210;DHT22;7188;56.070;12.698;2024-03-23T12:29:50;10.90;99.90
14210;DHT22;7188;56.070;12.698;2024-03-23T12:32:16;11.00;99.90
14210;DHT22;7188;56.070;12.698;2024-03-23T12:34:42;11.10;99.90
14210;DHT22;7188;56.070;12.698;2024-03-23T12:37:07;11.10;99.90
14210;DHT22;7188;56.070;12.698;2024-03-23T12:39:33;11.00;99.90
14210;DHT22;7188;56.070;12.698;2024-03-23T12:42:01;11.10;99.90
14210;DHT22;7188;56.070;12.698;2024-03-23T12:44:28;10.90;99.90
14210;DHT22;7188;56.070;12.698;2024-03-23T12:46:54;10.80;99.90
14210;DHT22;7188;56.070;12.698;2024-03-23T12:49:19;10.40;99.90
14210;DHT22;7188;56.070;12.698;2024-03-23T12:51:52;10.20;99.90
14210;DHT22;7188;56.070;12.698;2024-03-23T12:54:19;10.00;99.90
14210;DHT22;7188;56.070;12.698;2024-03-23T12:56:46;9.80;99.90
14210;DHT22;7188;56.070;12.698;2024-03-23T12:59:11;9.40;99.90
14210;DHT22;7188;56.070;12.698;2024-03-23T13:01:38;9.20;99.90
14210;DHT22;7188;56.070;12.698;2024-03-23T13:04:04;9.00;99.90
14210;DHT22;7188;56.070;12.698;2024-03-23T13:06:29;8.90;99.90
14210;DHT22;7188;56.070;12.698;2024-03-23T13:09:02;9.00;99.90
14210;DHT22;7188;56.070;12.698;2024-03-23T13:11:31;9.30;99.90
14210;DHT22;7188;56.070;12.698;2024-03-23T13:13:56;9.50;99.90
14210;DHT22;7188;56.070;12.698;2024-03-23T13:16:22;9.80;99.90
14210;DHT22;7188;56.070;12.698;2024-03-23T13:18:47;9.70;99.90
14210;DHT22;7188;56.070;12.698;2024-03-23T13:21:13;9.80;99.90
14210;DHT22;7188;56.070;12.698;2024-03-23T13:23:39;10.00;99.90
14210;DHT22;7188;56.070;12.698;2024-03-23T13:26:07;9.90;99.90
14210;DHT22;7188;56.070;12.698;2024-03-23T13:28:33;9.80;99.90
14210;DHT22;7188;56.070;12.698;2024-03-23T13:30:58;9.70;99.90
14210;DHT22;7188;56.070;12.698;2024-03-23T13:33:29;9.70;99.90
14210;DHT22;7188;56.070;12.698;2024-03-23T13:35:55;9.90;99.90
14210;DHT22;7188;56.070;12.698;2024-03-23T13:38:22;9.80;99.90
14210;DHT22;7188;56.070;12.698;2024-03-23T13:43:20;10.00;99.90
14210;DHT22;7188;56.070;12.698;2024-03-23T13:45:51;10.30;99.90
14210;DHT22;7188;56.070;12.698;2024-03-23T13:48:19;10.30;99.90
14210;DHT22;7188;56.070;12.698;2024-03-23T13:50:45;10.30;99.90
14210;DHT22;7188;56.070;12.698;2024-03-23T13:53:13;10.30;99.90
14210;DHT22;7188;56.070;12.698;2024-03-23T13:55:46;10.30;99.90
14210;DHT22;7188;56.070;12.698;2024-03-23T13:58:14;10.50;99.90
14210;DHT22;7188;56.070;12.698;2024-03-23T14:00:40;10.50;99.90
14210;DHT22;7188;56.070;12.698;2024-03-23T14:03:05;10.50;99.90
14210;DHT22;7188;56.070;12.698;2024-03-23T14:05:31;10.50;99.90
14210;DHT22;7188;56.070;12.698;2024-03-23T14:07:56;10.50;99.90
14210;DHT22;7188;56.070;12.698;2024-03-23T14:10:22;10.50;99.90
14210;DHT22;7188;56.070;12.698;2024-03-23T14:12:48;10.50;99.90
14210;DHT22;7188;56.070;12.698;2024-03-23T14:15:13;10.50;99.90
14210;DHT22;7188;56.070;12.698;2024-03-23T14:17:39;10.30;99.90
14210;DHT22;7188;56.070;12.698;2024-03-23T14:20:05;10.30;99.90
14210;DHT22;7188;56.070;12.698;2024-03-23T14:22:31;10.10;99.90
14210;DHT22;7188;56.070;12.698;2024-03-23T14:24:57;9.90;99.90
14210;DHT22;7188;56.070;12.698;2024-03-23T14:27:24;9.80;99.90
14210;DHT22;7188;56.070;12.698;2024-03-23T14:29:49;9.90;99.90
14210;DHT22;7188;56.070;12.698;2024-03-23T14:32:15;10.20;99.90
14210;DHT22;7188;56.070;12.698;2024-03-23T14:34:41;10.30;99.90
14210;DHT22;7188;56.070;12.698;2024-03-23T14:37:07;10.40;99.90
14210;DHT22;7188;56.070;12.698;2024-03-23T14:39:33;10.30;99.90
14210;DHT22;7188;56.070;12.698;2024-03-23T14:42:04;10.30;99.90
14210;DHT22;7188;56.070;12.698;2024-03-23T14:44:31;10.40;99.90
14210;DHT22;7188;56.070;12.698;2024-03-23T14:46:57;10.40;99.90
14210;DHT22;7188;56.070;12.698;2024-03-23T14:49:23;10.20;99.90
14210;DHT22;7188;56.070;12.698;2024-03-23T14:51:49;10.10;99.90
14210;DHT22;7188;56.070;12.698;2024-03-23T14:54:15;10.00;99.90
14210;DHT22;7188;56.070;12.698;2024-03-23T14:56:41;9.90;99.90
14210;DHT22;7188;56.070;12.698;2024-03-23T14:59:06;9.80;99.90
14210;DHT22;7188;56.070;12.698;2024-03-23T15:01:33;9.90;99.90
14210;DHT22;7188;56.070;12.698;2024-03-23T15:03:59;9.90;99.90
14210;DHT22;7188;56.070;12.698;2024-03-23T15:06:25;9.90;99.90
14210;DHT22;7188;56.070;12.698;2024-03-23T15:08:50;9.80;99.90
14210;DHT22;7188;56.070;12.698;2024-03-23T15:11:16;9.80;99.90
14210;DHT22;7188;56.070;12.698;2024-03-23T15:13:44;9.70;99.90
14210;DHT22;7188;56.070;12.698;2024-03-23T15:16:10;9.60;99.90
14210;DHT22;7188;56.070;12.698;2024-03-23T15:18:36;9.70;99.90
14210;DHT22;7188;56.070;12.698;2024-03-23T15:21:03;9.60;99.90
14210;DHT22;7188;56.070;12.698;2024-03-23T15:23:33;9.60;99.90
14210;DHT22;7188;56.070;12.698;2024-03-23T15:26:01;9.60;99.90
14210;DHT22;7188;56.070;12.698;2024-03-23T15:28:27;9.50;99.90
14210;DHT22;7188;56.070;12.698;2024-03-23T15:31:06;9.40;99.90
14210;DHT22;7188;56.070;12.698;2024-03-23T15:33:32;9.40;99.90
14210;DHT22;7188;56.070;12.698;2024-03-23T15:36:02;9.30;99.90
14210;DHT22;7188;56.070;12.698;2024-03-23T15:38:27;9.30;99.90
14210;DHT22;7188;56.070;12.698;2024-03-23T15:40:54;9.30;99.90
14210;DHT22;7188;56.070;12.698;2024-03-23T15:43:20;9.30;99.90
14210;DHT22;7188;56.070;12.698;2024-03-23T15:45:56;9.30;99.90
14210;DHT22;7188;56.070;12.698;2024-03-23T15:48:22;9.30;99.90
14210;DHT22;7188;56.070;12.698;2024-03-23T15:50:52;9.20;99.90
14210;DHT22;7188;56.070;12.698;2024-03-23T15:53:22;9.20;99.90
14210;DHT22;7188;56.070;12.698;2024-03-23T15:55:58;9.10;99.90
14210;DHT22;7188;56.070;12.698;2024-03-23T15:58:24;8.90;99.90
14210;DHT22;7188;56.070;12.698;2024-03-23T16:03:25;8.90;99.90
14210;DHT22;7188;56.070;12.698;2024-03-23T16:05:54;8.80;99.90
14210;DHT22;7188;56.070;12.698;2024-03-23T16:08:21;8.80;99.90
14210;DHT22;7188;56.070;12.698;2024-03-23T16:10:47;8.80;99.90
14210;DHT22;7188;56.070;12.698;2024-03-23T16:13:13;8.90;99.90
14210;DHT22;7188;56.070;12.698;2024-03-23T16:15:39;8.80;99.90
14210;DHT22;7188;56.070;12.698;2024-03-23T16:18:05;8.80;99.90
14210;DHT22;7188;56.070;12.698;2024-03-23T16:20:31;8.80;99.90
14210;DHT22;7188;56.070;12.698;2024-03-23T16:23:02;8.80;99.90
14210;DHT22;7188;56.070;12.698;2024-03-23T16:25:28;8.80;99.90
14210;DHT22;7188;56.070;12.698;2024-03-23T16:27:53;8.60;99.90
14210;DHT22;7188;56.070;12.698;2024-03-23T16:30:20;8.50;99.90
14210;DHT22;7188;56.070;12.698;2024-03-23T16:32:46;8.50;99.90
14210;DHT22;7188;56.070;12.698;2024-03-23T16:35:15;8.40;99.90
14210;DHT22;7188;56.070;12.698;2024-03-23T16:37:41;8.30;99.90
14210;DHT22;7188;56.070;12.698;2024-03-23T16:40:07;8.30;99.90
14210;DHT22;7188;56.070;12.698;2024-03-23T16:42:37;8.20;99.90
14210;DHT22;7188;56.070;12.698;2024-03-23T16:45:03;8.30;99.90
14210;DHT22;7188;56.070;12.698;2024-03-23T16:47:29;8.30;99.90